Weather observations for the past three days for
Grangeville - Idaho County Airport
Imperial (Metric)
Date Time (pdt) Wind (mph) Vis. (mi.) Weather Sky Cond. Temperature (ºF) Relative Humidity Wind Chill (°F) Heat Index (°F) Pressure Precipitation (in)
Air Dwpt 6 hour altimeter (in) sea level (mb) 1 hr 3 hr 6 hr
Max. Min.
31 10:35 Calm 10.00 Fair CLR 64.4 33.8 32% 30.03 0.0
31 10:15 NE 5 10.00 Fair CLR 64.4 33.8 32% 30.04 0.0
31 09:55 Calm 10.00 Fair CLR 62.6 33.8 34% 30.04 0.0
31 09:35 Calm 10.00 Fair CLR 60.8 33.8 36% 30.04 0.0
31 09:15 NE 5 10.00 Fair CLR 59 33.8 39% 30.04 0.0
31 08:55 Calm 10.00 Fair CLR 57.2 33.8 41% 30.05 0.0
31 08:35 Calm 10.00 Fair CLR 55.4 33.8 44% 30.05 0.0
31 08:15 Calm 10.00 Fair CLR 53.6 33.8 47% 30.05 0.0
31 07:55 Calm 10.00 Fair CLR 51.8 33.8 50% 30.04 0.0
31 07:35 Calm 7.00 Fair CLR 50 35.6 58% 30.04 0.0
31 07:10 Calm 10.00 Fair CLR 48.2 32 54% 30.04 0.0
31 06:55 E 3 10.00 Fair CLR 44.6 32 61% 30.04 0.0
31 06:35 Calm 10.00 Fair CLR 41 32 70% 30.04 0.0
31 06:15 Calm 10.00 Fair CLR 42.8 30.2 61% 30.03 0.0
31 05:55 E 3 7.00 Fair CLR 42.8 30.2 61% 30.03 0.0
31 05:35 Calm 10.00 Fair CLR 42.8 32 66% 30.03 0.0
31 05:15 Calm 10.00 Fair CLR 42.8 32 66% 30.03 0.0
31 04:55 Calm 10.00 Fair CLR 41 30.2 66% 30.03 0.0
31 04:35 Calm 10.00 Fair CLR 42.8 32 66% 30.03 0.0
31 04:15 Calm 10.00 Fair CLR 42.8 32 66% 30.03 0.0
31 03:55 Calm 10.00 Fair CLR 44.6 30.2 57% 30.03 0.0
31 03:35 Calm 10.00 Fair CLR 42.8 30.2 61% 30.03 0.0
31 03:15 Calm 10.00 Fair CLR 44.6 32 61% 30.03 0.0
31 02:55 Calm 10.00 Fair CLR 46.4 32 57% 30.04 0.0
31 02:35 Calm 10.00 Fair CLR 46.4 32 57% 30.04 0.0
31 02:15 Calm 10.00 Fair CLR 44.6 30.2 57% 30.04 0.0
31 01:50 Calm 10.00 Fair CLR 44.6 28.4 53% 30.04 0.0
31 01:35 Calm 10.00 Fair CLR 44.6 30.2 57% 30.04 0.0
31 01:15 S 5 10.00 Fair CLR 46.4 32 57% 45 30.04 0.0
31 00:55 Calm 10.00 Fair CLR 46.4 32 57% 30.04 0.0
31 00:35 Calm 10.00 Fair CLR 46.4 32 57% 30.04 0.0
31 00:15 Calm 10.00 Fair CLR 46.4 30.2 53% 30.04 0.0
30 23:55 Calm 10.00 Fair CLR 46.4 30.2 53% 30.04 0.0
30 23:30 Calm 10.00 Fair CLR 48.2 32 54% 30.04 0.0
30 23:20 SW 3 10.00 Fair CLR 50 32 50% 30.05 0.0
30 22:55 Calm 10.00 Fair CLR 46.4 30.2 53% 30.05 0.0
30 22:35 Calm 10.00 Fair CLR 50 33.8 54% 30.06 0.0
30 22:15 Calm 10.00 Fair CLR 51.8 32 47% 30.06 0.0
30 21:50 Calm 10.00 Fair CLR 51.8 32 47% 30.06 0.0
30 21:35 S 3 10.00 Fair CLR 53.6 32 44% 30.06 0.0
30 21:15 SE 3 10.00 Fair CLR 53.6 32 44% 30.06 0.0
30 20:55 Calm 10.00 Fair CLR 55.4 32 41% 30.05 0.0
30 20:35 Calm 10.00 Fair CLR 53.6 32 44% 30.05 0.0
30 20:15 Calm 10.00 Fair CLR 57.2 32 39% 30.05 0.0
30 19:55 Calm 10.00 Fair CLR 59 32 36% 30.04 0.0
30 19:35 N 5 10.00 Fair CLR 59 32 36% 30.03 0.0
30 19:15 N 6 10.00 Fair CLR 60.8 32 34% 30.03 0.0
30 18:55 NE 6 10.00 Fair CLR 64.4 33.8 32% 30.03 0.0
30 18:35 NE 8 10.00 Fair CLR 66.2 33.8 30% 30.03 0.0
30 18:15 NE 8 10.00 Fair CLR 68 33.8 28% 30.03 0.0
30 17:55 NE 8 10.00 Fair CLR 68 33.8 28% 30.03 0.0
30 17:40 NE 12 10.00 Fair CLR 68 33.8 28% 30.03 0.0
30 17:15 NE 10 G 20 10.00 Fair CLR 69.8 33.8 27% 30.03 0.0
30 16:55 NE 13 10.00 Fair CLR 69.8 33.8 27% 30.03 0.0
30 16:35 NE 13 10.00 Fair CLR 69.8 32 25% 30.03 0.0
30 16:15 NW 8 10.00 Fair CLR 71.6 28.4 20% 30.04 0.0
30 15:55 N 6 G 9 10.00 Fair CLR 71.6 28.4 20% 30.04 0.0
30 15:35 NW 12 10.00 Fair CLR 71.6 28.4 20% 30.04 0.0
30 15:15 NW 8 10.00 Fair CLR 71.6 26.6 19% 30.05 0.0
30 14:55 NW 8 10.00 Fair CLR 69.8 26.6 20% 30.05 0.0
30 14:35 SW 5 10.00 Fair CLR 71.6 26.6 19% 30.06 0.0
30 14:15 W 8 G 16 10.00 Fair CLR 69.8 28.4 21% 30.07 0.0
30 13:55 SW 7 10.00 Fair CLR 69.8 28.4 21% 30.07 0.0
30 13:35 NW 5 10.00 Fair CLR 68 32 26% 30.07 0.0
30 13:15 S 3 10.00 Fair CLR 68 32 26% 30.07 0.0
30 12:55 NW 3 10.00 Fair CLR 68 32 26% 30.08 0.0
30 12:35 NW 12 G 16 10.00 Fair CLR 68 32 26% 30.08 0.0
30 12:15 Calm 10.00 Fair CLR 66.2 32 28% 30.08 0.0
30 11:55 SW 8 10.00 Fair CLR 64.4 30.2 28% 30.08 0.0
30 11:35 W 7 10.00 Fair CLR 64.4 30.2 28% 30.09 0.0
30 11:15 SW 7 10.00 Fair CLR 64.4 32 30% 30.09 0.0
30 10:55 SW 3 10.00 Fair CLR 62.6 33.8 34% 30.09 0.0
30 10:35 W 6 10.00 Fair CLR 62.6 33.8 34% 30.09 0.0
30 10:15 Calm 10.00 Fair CLR 60.8 33.8 36% 30.09 0.0
30 09:55 Calm 10.00 Fair CLR 60.8 35.6 39% 30.1 0.0
30 09:35 NW 5 10.00 Fair CLR 59 35.6 42% 30.09 0.0
30 09:15 W 6 10.00 Fair CLR 59 35.6 42% 30.1 0.0
30 08:55 NW 3 10.00 Fair CLR 59 35.6 42% 30.1 0.0
30 08:35 W 5 10.00 Fair CLR 55.4 35.6 47% 30.1 0.0
30 08:15 Calm 10.00 Fair CLR 53.6 33.8 47% 30.1 0.0
30 08:00 Calm 10.00 Fair CLR 53.6 33.8 47% 30.11 0.0
30 07:35 Calm 10.00 Fair CLR 51.8 33.8 50% 30.1 0.0
30 07:15 Calm 10.00 Partly Cloudy SCT050 SCT060 48.2 32 54% 30.1 0.0
30 06:55 Calm 10.00 Partly Cloudy SCT060 46.4 32 57% 30.09 0.0
30 06:35 Calm 10.00 Partly Cloudy SCT060 44.6 32 61% 30.09 0.0
30 06:15 Calm 10.00 Partly Cloudy SCT055 42.8 32 66% 30.09 0.0
30 05:55 Calm 10.00 Mostly Cloudy SCT055 BKN065 44.6 30.2 57% 30.08 0.0
30 05:35 Calm 10.00 Partly Cloudy SCT055 44.6 32 61% 30.07 0.0
30 05:15 S 3 10.00 Partly Cloudy SCT070 41 30.2 66% 30.06 0.0
30 04:55 SW 6 10.00 Partly Cloudy SCT070 42.8 30.2 61% 40 30.06 0.0
30 04:35 S 5 10.00 Fair CLR 41 28.4 61% 38 30.06 0.0
30 04:15 S 3 10.00 Fair CLR 41 30.2 66% 30.06 0.0
30 03:55 S 3 10.00 Fair CLR 41 30.2 66% 30.06 0.0
30 03:35 S 5 10.00 Fair CLR 42.8 30.2 61% 41 30.06 0.0
30 03:15 S 3 10.00 Fair CLR 42.8 28.4 57% 30.05 0.0
30 02:55 Calm 10.00 Fair CLR 41 28.4 61% 30.05 0.0
30 02:35 Calm 10.00 Fair CLR 42.8 28.4 57% 30.04 0.0
30 02:15 Calm 10.00 Fair CLR 44.6 30.2 57% 30.04 0.0
30 01:55 Calm 10.00 Fair CLR 44.6 30.2 57% 30.05 0.0
30 01:35 Calm 10.00 Fair CLR 44.6 30.2 57% 30.05 0.0
30 01:15 Calm 10.00 Fair CLR 46.4 30.2 53% 30.05 0.0
30 00:55 SE 6 10.00 Fair CLR 46.4 28.4 50% 44 30.05 0.0
30 00:15 SE 5 10.00 Partly Cloudy SCT080 46.4 28.4 50% 45 30.04 0.0
29 23:55 Calm 10.00 Mostly Cloudy BKN080 48.2 28.4 46% 30.04 0.0
29 23:35 Calm 10.00 Partly Cloudy SCT080 50 28.4 43% 30.04 0.0
29 23:15 SE 3 10.00 Fair CLR 50 28.4 43% 30.04 0.0
29 22:55 SE 5 10.00 Fair CLR 50 28.4 43% 49 30.04 0.0
29 22:35 Calm 10.00 Fair CLR 51.8 28.4 41% 30.04 0.0
29 22:15 Calm 10.00 Fair CLR 51.8 28.4 41% 30.04 0.0
29 21:55 E 5 10.00 Partly Cloudy SCT075 SCT090 53.6 28.4 38% 30.04 0.0
29 21:35 NE 5 10.00 Overcast BKN075 OVC090 55.4 28.4 36% 30.04 0.0
29 21:15 N 5 10.00 Overcast OVC075 57.2 30.2 36% 30.04 0.0
29 20:55 N 7 10.00 Overcast OVC075 59 30.2 34% 30.04 0.0
29 20:30 N 7 10.00 Overcast OVC075 59 32 36% 30.03 0.0
29 20:15 N 6 10.00 Overcast OVC075 59 33.8 39% 30.03 0.0
29 19:55 N 7 10.00 Overcast OVC075 60.8 33.8 36% 30.02 0.0
29 19:40 N 6 10.00 Overcast OVC075 60.8 33.8 36% 30.02 0.0
29 19:15 N 9 10.00 Overcast OVC075 60.8 33.8 36% 30 0.0
29 18:55 N 10 G 16 10.00 Overcast OVC075 60.8 33.8 36% 30 0.0
29 18:35 N 12 10.00 Overcast BKN075 OVC085 60.8 33.8 36% 30 0.0
29 18:15 N 12 10.00 Overcast OVC075 62.6 33.8 34% 30 0.0
29 17:55 N 15 G 22 10.00 Overcast OVC075 62.6 33.8 34% 29.99 0.0
29 17:35 N 17 G 22 10.00 Overcast OVC075 62.6 33.8 34% 29.99 0.0
29 17:15 N 17 G 23 10.00 Overcast BKN075 OVC085 62.6 33.8 34% 29.98 0.0
29 16:55 N 16 G 28 10.00 Mostly Cloudy BKN075 BKN090 64.4 33.8 32% 29.97 0.0
29 16:35 N 18 G 26 10.00 Fair CLR 68 33.8 28% 29.96 0.0
29 16:15 N 21 G 26 10.00 Mostly Cloudy and Breezy SCT090 BKN120 66.2 35.6 32% 29.95 0.0
29 15:55 N 21 G 30 10.00 Overcast and Breezy BKN080 OVC110 66.2 37.4 35% 29.94 0.0
29 15:35 N 21 G 25 10.00 Overcast and Breezy OVC090 68 37.4 33% 29.94 0.0
29 15:15 N 16 G 23 10.00 Mostly Cloudy SCT075 BKN090 BKN110 68 37.4 33% 29.93 0.0
29 14:55 NE 14 G 20 10.00 Partly Cloudy SCT075 SCT100 71.6 39.2 31% 29.93 0.0
29 14:35 NE 3 10.00 Fair CLR 73.4 39.2 29% 29.92 0.0
29 14:15 Calm 10.00 Fair CLR 71.6 37.4 29% 29.93 0.0
29 13:55 NE 6 10.00 Fair CLR 69.8 37.4 31% 29.93 0.0
29 13:35 E 7 10.00 Partly Cloudy SCT095 69.8 37.4 31% 29.95 0.0
29 13:15 Calm 10.00 Partly Cloudy SCT095 68 37.4 33% 29.95 0.0
29 12:55 NE 9 10.00 Overcast OVC095 66.2 37.4 35% 29.95 0.0
29 12:35 E 3 10.00 Mostly Cloudy BKN095 66.2 37.4 35% 29.95 0.0
29 12:15 NE 6 10.00 Mostly Cloudy BKN095 BKN110 68 37.4 33% 29.96 0.0
29 11:55 E 6 10.00 Mostly Cloudy BKN095 66.2 37.4 35% 29.96 0.0
29 11:35 E 7 10.00 Mostly Cloudy BKN095 66.2 35.6 32% 29.97 0.0
29 11:15 E 3 10.00 Mostly Cloudy BKN095 64.4 35.6 34% 29.97 0.0
29 10:55 Calm 10.00 Partly Cloudy SCT095 64.4 37.4 37% 29.97 0.0
29 10:35 N 3 10.00 Overcast SCT031 SCT055 OVC090 62.6 37.4 39% 29.97 0.0
29 10:15 NE 5 10.00 Mostly Cloudy BKN090 62.6 35.6 37% 29.96 0.0
29 09:55 Calm 10.00 Mostly Cloudy BKN100 BKN120 62.6 35.6 37% 29.97 0.0
29 09:35 N 6 10.00 Mostly Cloudy SCT100 BKN120 62.6 35.6 37% 29.96 0.0
29 09:15 N 6 10.00 Mostly Cloudy BKN100 62.6 35.6 37% 29.96 0.0
29 08:55 NE 8 10.00 Partly Cloudy SCT110 62.6 35.6 37% 29.96 0.0
29 08:35 NE 6 10.00 Fair CLR 62.6 37.4 39% 29.96 0.0
29 08:15 Calm 10.00 Partly Cloudy SCT110 59 35.6 42% 29.97 0.0
29 08:00 Calm 10.00 Mostly Cloudy BKN110 59 35.6 42% 29.96 0.0
29 07:35 SE 3 10.00 Fair CLR 57.2 33.8 41% 29.96 0.0
29 07:15 Calm 10.00 Fair CLR 55.4 33.8 44% 29.96 0.0
29 06:55 Calm 10.00 Partly Cloudy SCT075 53.6 33.8 47% 29.94 0.0
29 06:35 Calm 10.00 Partly Cloudy SCT075 50 35.6 58% 29.94 0.0
29 06:15 Calm 10.00 Partly Cloudy SCT075 51.8 33.8 50% 29.93 0.0
29 05:55 Calm 10.00 Fair CLR 51.8 33.8 50% 29.92 0.0
29 05:35 E 5 10.00 Fair CLR 51.8 33.8 50% 29.92 0.0
29 05:15 SE 6 10.00 Fair CLR 51.8 33.8 50% 29.91 0.0
29 04:55 Calm 10.00 Fair CLR 50 32 50% 29.92 0.0
29 04:35 SE 3 10.00 Fair CLR 50 32 50% 29.92 0.0
29 04:15 Calm 10.00 Fair CLR 51.8 33.8 50% 29.93 0.0
29 03:55 S 3 10.00 Fair CLR 51.8 32 47% 29.93 0.0
29 03:35 Calm 10.00 Fair CLR 51.8 33.8 50% 29.93 0.0
29 03:15 E 3 10.00 Fair CLR 53.6 32 44% 29.92 0.0
29 02:55 Calm 10.00 Fair CLR 53.6 33.8 47% 29.93 0.0
29 02:35 Calm 10.00 Fair CLR 55.4 32 41% 29.93 0.0
29 02:15 SE 3 10.00 Fair CLR 55.4 33.8 44% 29.93 0.0
29 01:55 Calm 10.00 Fair CLR 55.4 33.8 44% 29.92 0.0
29 01:35 Calm 10.00 Fair CLR 55.4 33.8 44% 29.93 0.0
29 01:15 SW 3 10.00 Fair CLR 59 32 36% 29.93 0.0
29 00:55 Calm 10.00 Partly Cloudy SCT120 59 33.8 39% 29.93 0.0
29 00:35 E 3 10.00 Mostly Cloudy BKN120 60.8 33.8 36% 29.93 0.0
29 00:15 SE 5 10.00 Fair CLR 59 33.8 39% 29.93 0.0
28 23:55 E 3 10.00 Fair CLR 59 33.8 39% 29.93 0.0
28 23:35 Calm 10.00 Fair CLR 60.8 37.4 42% 29.93 0.0
28 23:15 Calm 10.00 Fair CLR 59 37.4 45% 29.93 0.0
28 22:55 Calm 10.00 Fair CLR 57.2 37.4 48% 29.93 0.0
28 22:35 Calm 10.00 Fair CLR 59 35.6 42% 29.92 0.0
28 22:15 Calm 10.00 Fair CLR 60.8 37.4 42% 29.93 0.0
28 21:55 Calm 10.00 Fair CLR 62.6 37.4 39% 29.93 0.0
28 21:35 Calm 10.00 Fair CLR 64.4 37.4 37% 29.93 0.0
28 21:15 Calm 10.00 Fair CLR 68 37.4 33% 29.93 0.0
28 20:55 Calm 10.00 Fair CLR 68 37.4 33% 29.93 0.0
28 20:35 Calm 10.00 Fair CLR 66.2 37.4 35% 29.93 0.0
28 20:15 N 6 10.00 Partly Cloudy SCT110 68 37.4 33% 29.93 0.0
28 19:55 N 8 10.00 Partly Cloudy SCT110 69.8 37.4 31% 29.92 0.0
28 19:35 N 7 10.00 Fair CLR 69.8 37.4 31% 29.92 0.0
28 19:15 N 8 10.00 Fair CLR 71.6 37.4 29% 29.92 0.0
28 18:55 N 6 10.00 Fair CLR 73.4 41 31% 29.92 0.0
28 18:35 NE 8 10.00 Fair CLR 73.4 39.2 29% 29.92 0.0
28 18:15 NE 7 10.00 Fair CLR 75.2 39.2 27% 77 29.92 0.0
28 17:55 NE 8 10.00 Fair CLR 77 39.2 26% 77 29.92 0.0
28 17:35 E 9 10.00 Fair CLR 77 39.2 26% 77 29.92 0.0
28 17:15 E 8 10.00 Fair CLR 77 39.2 26% 77 29.93 0.0
28 16:55 E 8 10.00 Fair CLR 78.8 39.2 24% 78 29.93 0.0
28 16:35 NE 6 10.00 Fair CLR 77 39.2 26% 77 29.93 0.0
28 16:15 E 7 10.00 Fair CLR 77 39.2 26% 77 29.94 0.0
28 15:55 E 7 7.00 Fair CLR 77 41 28% 78 29.95 0.0
28 15:35 E 9 10.00 Fair CLR 77 41 28% 78 29.95 0.0
28 15:15 E 12 7.00 Fair CLR 77 41 28% 78 29.96 0.0
28 14:55 NE 9 7.00 Fair CLR 78.8 41 26% 78 29.96 0.0
28 14:35 E 7 5.00 Fair CLR 77 41 28% 78 29.97 0.0
28 14:15 NE 10 10.00 Fair CLR 77 41 28% 78 29.97 0.0
28 13:55 E 5 10.00 Fair CLR 77 41 28% 78 29.97 0.0
28 13:35 Calm 10.00 Fair CLR 77 41 28% 78 29.98 0.0
28 13:15 E 5 10.00 Fair CLR 75.2 41 29% 77 29.99 0.0
28 12:55 NW 6 10.00 Fair CLR 73.4 41 31% 29.99 0.0
28 12:35 Calm 10.00 Fair CLR 73.4 41 31% 30 0.0
28 12:15 E 3 10.00 Fair CLR 71.6 41 33% 30.01 0.0
28 11:55 NE 5 10.00 Fair CLR 69.8 41 35% 30.01 0.0
28 11:35 N 6 10.00 Fair CLR 69.8 41 35% 30.02 0.0
28 11:15 NE 6 10.00 Fair CLR 68 41 38% 30.02 0.0
28 10:55 NE 6 10.00 Fair CLR 68 41 38% 30.03 0.0
Date Time (pdt) Wind (mph) Vis. (mi.) Weather Sky Cond. Air Dwpt Max. Min. Relative Humidity Wind Chill (°F) Heat Index (°F) altimeter (in) sea level (mb) 1 hr 3 hr 6 hr
6 hour
Temperature (ºF) Pressure Precipitation (in)